sensor_id;sensor_type;location;lat;lon;timestamp;pressure;altitude;pressure_sealevel;temperature;humidity
55538;BME280;41383;51.418;7.286;2023-04-01T00:01:59;97643.41;;;9.91;89.21
55538;BME280;41383;51.418;7.286;2023-04-01T00:04:25;97638.78;;;9.92;89.03
55538;BME280;41383;51.418;7.286;2023-04-01T00:06:50;97643.91;;;9.93;89.11
55538;BME280;41383;51.418;7.286;2023-04-01T00:09:16;97643.50;;;10.09;88.95
55538;BME280;41383;51.418;7.286;2023-04-01T00:11:42;97637.69;;;10.02;88.75
55538;BME280;41383;51.418;7.286;2023-04-01T00:14:08;97643.19;;;10.11;88.80
55538;BME280;41383;51.418;7.286;2023-04-01T00:16:33;97636.56;;;10.03;88.47
55538;BME280;41383;51.418;7.286;2023-04-01T00:18:58;97637.88;;;10.06;88.84
55538;BME280;41383;51.418;7.286;2023-04-01T00:21:25;97638.25;;;10.22;88.56
55538;BME280;41383;51.418;7.286;2023-04-01T00:23:51;97632.25;;;10.02;89.08
55538;BME280;41383;51.418;7.286;2023-04-01T00:26:16;97634.84;;;10.07;89.16
55538;BME280;41383;51.418;7.286;2023-04-01T00:28:44;97633.25;;;10.06;88.94
55538;BME280;41383;51.418;7.286;2023-04-01T00:31:10;97630.19;;;10.08;89.11
55538;BME280;41383;51.418;7.286;2023-04-01T00:33:36;97648.28;;;10.03;89.71
55538;BME280;41383;51.418;7.286;2023-04-01T00:36:10;97632.44;;;10.06;89.54
55538;BME280;41383;51.418;7.286;2023-04-01T00:38:36;97633.25;;;10.06;89.07
55538;BME280;41383;51.418;7.286;2023-04-01T00:41:01;97625.88;;;10.07;89.00
55538;BME280;41383;51.418;7.286;2023-04-01T00:43:26;97629.84;;;10.00;89.52
55538;BME280;41383;51.418;7.286;2023-04-01T00:45:52;97634.16;;;9.92;89.89
55538;BME280;41383;51.418;7.286;2023-04-01T00:48:20;97632.69;;;9.95;89.87
55538;BME280;41383;51.418;7.286;2023-04-01T00:50:51;97626.16;;;10.05;89.40
55538;BME280;41383;51.418;7.286;2023-04-01T00:53:18;97630.38;;;10.11;89.23
55538;BME280;41383;51.418;7.286;2023-04-01T00:55:50;97620.44;;;10.15;89.52
55538;BME280;41383;51.418;7.286;2023-04-01T00:58:18;97624.59;;;10.04;89.36
55538;BME280;41383;51.418;7.286;2023-04-01T01:00:47;97624.41;;;10.00;89.72
55538;BME280;41383;51.418;7.286;2023-04-01T01:03:13;97627.53;;;10.16;88.95
55538;BME280;41383;51.418;7.286;2023-04-01T01:08:52;97631.72;;;9.91;90.26
55538;BME280;41383;51.418;7.286;2023-04-01T01:11:42;97634.25;;;9.87;90.61
55538;BME280;41383;51.418;7.286;2023-04-01T01:20:33;97616.84;;;9.88;91.32
55538;BME280;41383;51.418;7.286;2023-04-01T01:23:14;97616.72;;;10.02;91.18
55538;BME280;41383;51.418;7.286;2023-04-01T01:26:32;97612.72;;;10.00;89.85
55538;BME280;41383;51.418;7.286;2023-04-01T01:32:11;97613.19;;;10.02;89.80
55538;BME280;41383;51.418;7.286;2023-04-01T01:37:13;97605.19;;;10.06;89.79
55538;BME280;41383;51.418;7.286;2023-04-01T01:39:42;97602.03;;;10.12;89.72
55538;BME280;41383;51.418;7.286;2023-04-01T01:42:11;97606.03;;;10.15;89.47
55538;BME280;41383;51.418;7.286;2023-04-01T01:44:38;97604.75;;;10.12;89.25
55538;BME280;41383;51.418;7.286;2023-04-01T01:47:05;97608.63;;;10.20;88.66
55538;BME280;41383;51.418;7.286;2023-04-01T01:49:32;97608.59;;;10.11;89.07
55538;BME280;41383;51.418;7.286;2023-04-01T01:51:58;97613.06;;;10.07;89.03
55538;BME280;41383;51.418;7.286;2023-04-01T01:54:24;97607.97;;;9.83;89.98
55538;BME280;41383;51.418;7.286;2023-04-01T01:56:54;97614.78;;;9.94;90.15
55538;BME280;41383;51.418;7.286;2023-04-01T01:59:24;97609.16;;;9.90;89.84
55538;BME280;41383;51.418;7.286;2023-04-01T02:01:52;97614.53;;;10.13;89.71
55538;BME280;41383;51.418;7.286;2023-04-01T02:04:21;97615.81;;;10.16;89.46
55538;BME280;41383;51.418;7.286;2023-04-01T02:06:54;97606.88;;;10.24;89.25
55538;BME280;41383;51.418;7.286;2023-04-01T02:09:21;97606.50;;;10.17;88.82
55538;BME280;41383;51.418;7.286;2023-04-01T02:11:56;97608.31;;;10.22;88.83
55538;BME280;41383;51.418;7.286;2023-04-01T02:14:25;97609.72;;;10.10;87.79
55538;BME280;41383;51.418;7.286;2023-04-01T02:17:30;97605.84;;;10.02;88.93
55538;BME280;41383;51.418;7.286;2023-04-01T02:20:00;97618.06;;;10.14;88.79
55538;BME280;41383;51.418;7.286;2023-04-01T02:22:32;97609.25;;;10.17;88.46
55538;BME280;41383;51.418;7.286;2023-04-01T02:25:03;97611.09;;;9.99;88.97
55538;BME280;41383;51.418;7.286;2023-04-01T02:27:30;97613.25;;;9.79;89.53
55538;BME280;41383;51.418;7.286;2023-04-01T02:29:56;97601.19;;;10.03;89.62
55538;BME280;41383;51.418;7.286;2023-04-01T02:32:22;97596.69;;;9.98;89.04
55538;BME280;41383;51.418;7.286;2023-04-01T02:34:48;97603.22;;;9.88;89.36
55538;BME280;41383;51.418;7.286;2023-04-01T02:37:15;97591.66;;;9.83;89.68
55538;BME280;41383;51.418;7.286;2023-04-01T02:39:40;97593.59;;;9.82;89.57
55538;BME280;41383;51.418;7.286;2023-04-01T02:42:07;97607.31;;;9.77;89.65
55538;BME280;41383;51.418;7.286;2023-04-01T02:44:33;97599.16;;;9.77;89.59
55538;BME280;41383;51.418;7.286;2023-04-01T02:46:58;97601.22;;;9.71;89.62
55538;BME280;41383;51.418;7.286;2023-04-01T02:49:23;97589.50;;;9.71;89.90
55538;BME280;41383;51.418;7.286;2023-04-01T02:51:49;97600.94;;;9.81;90.26
55538;BME280;41383;51.418;7.286;2023-04-01T02:54:14;97598.75;;;9.92;89.42
55538;BME280;41383;51.418;7.286;2023-04-01T02:56:39;97597.25;;;9.77;89.89
55538;BME280;41383;51.418;7.286;2023-04-01T02:59:05;97602.72;;;9.86;89.32
55538;BME280;41383;51.418;7.286;2023-04-01T03:01:30;97598.81;;;9.69;89.74
55538;BME280;41383;51.418;7.286;2023-04-01T03:03:55;97610.53;;;9.79;90.25
55538;BME280;41383;51.418;7.286;2023-04-01T03:06:21;97597.72;;;9.79;90.72
55538;BME280;41383;51.418;7.286;2023-04-01T03:08:46;97607.47;;;9.72;90.51
55538;BME280;41383;51.418;7.286;2023-04-01T03:11:11;97611.44;;;9.65;90.52
55538;BME280;41383;51.418;7.286;2023-04-01T03:13:37;97604.09;;;9.75;91.53
55538;BME280;41383;51.418;7.286;2023-04-01T03:16:02;97600.13;;;9.81;90.40
55538;BME280;41383;51.418;7.286;2023-04-01T03:18:28;97615.75;;;9.66;90.82
55538;BME280;41383;51.418;7.286;2023-04-01T03:20:53;97605.06;;;9.70;91.04
55538;BME280;41383;51.418;7.286;2023-04-01T03:23:18;97622.72;;;9.81;90.66
55538;BME280;41383;51.418;7.286;2023-04-01T03:25:46;97602.63;;;9.68;90.88
55538;BME280;41383;51.418;7.286;2023-04-01T03:28:11;97608.38;;;9.67;90.95
55538;BME280;41383;51.418;7.286;2023-04-01T03:30:38;97605.72;;;9.76;91.45
55538;BME280;41383;51.418;7.286;2023-04-01T03:33:03;97614.50;;;9.73;90.86
55538;BME280;41383;51.418;7.286;2023-04-01T03:35:28;97615.31;;;9.73;90.57
55538;BME280;41383;51.418;7.286;2023-04-01T03:37:54;97620.66;;;9.55;91.31
55538;BME280;41383;51.418;7.286;2023-04-01T03:40:20;97627.50;;;9.76;91.80
55538;BME280;41383;51.418;7.286;2023-04-01T03:42:46;97618.34;;;9.72;90.97
55538;BME280;41383;51.418;7.286;2023-04-01T03:45:11;97629.84;;;9.68;91.30
55538;BME280;41383;51.418;7.286;2023-04-01T03:47:37;97633.19;;;9.65;91.70
55538;BME280;41383;51.418;7.286;2023-04-01T03:50:05;97627.84;;;9.60;91.88
55538;BME280;41383;51.418;7.286;2023-04-01T03:52:31;97625.47;;;9.58;92.61
55538;BME280;41383;51.418;7.286;2023-04-01T03:54:56;97631.22;;;9.57;92.28
55538;BME280;41383;51.418;7.286;2023-04-01T03:57:22;97627.19;;;9.77;92.11
55538;BME280;41383;51.418;7.286;2023-04-01T03:59:47;97626.28;;;9.59;91.84
55538;BME280;41383;51.418;7.286;2023-04-01T04:02:13;97642.84;;;9.72;91.77
55538;BME280;41383;51.418;7.286;2023-04-01T04:04:38;97639.56;;;9.61;92.26
55538;BME280;41383;51.418;7.286;2023-04-01T04:07:03;97639.31;;;9.71;92.03
55538;BME280;41383;51.418;7.286;2023-04-01T04:09:32;97642.50;;;9.73;91.48
55538;BME280;41383;51.418;7.286;2023-04-01T04:11:58;97640.63;;;9.51;91.67
55538;BME280;41383;51.418;7.286;2023-04-01T04:14:24;97643.75;;;9.67;91.83
55538;BME280;41383;51.418;7.286;2023-04-01T04:16:49;97641.09;;;9.76;91.77
55538;BME280;41383;51.418;7.286;2023-04-01T04:19:14;97639.66;;;9.78;91.19
55538;BME280;41383;51.418;7.286;2023-04-01T04:21:41;97639.88;;;9.59;91.77
55538;BME280;41383;51.418;7.286;2023-04-01T04:24:07;97649.38;;;9.71;92.41
55538;BME280;41383;51.418;7.286;2023-04-01T04:26:33;97657.34;;;9.67;92.15
55538;BME280;41383;51.418;7.286;2023-04-01T04:28:58;97657.03;;;9.68;92.24
55538;BME280;41383;51.418;7.286;2023-04-01T04:31:24;97653.72;;;9.72;92.42
55538;BME280;41383;51.418;7.286;2023-04-01T04:33:50;97655.88;;;9.84;91.27
55538;BME280;41383;51.418;7.286;2023-04-01T04:36:17;97657.78;;;9.83;91.10
55538;BME280;41383;51.418;7.286;2023-04-01T04:38:42;97654.38;;;9.77;91.65
55538;BME280;41383;51.418;7.286;2023-04-01T04:41:12;97664.13;;;9.78;90.66
55538;BME280;41383;51.418;7.286;2023-04-01T04:43:38;97660.25;;;9.71;91.33
55538;BME280;41383;51.418;7.286;2023-04-01T04:46:08;97653.78;;;9.57;92.73
55538;BME280;41383;51.418;7.286;2023-04-01T04:48:33;97658.34;;;9.48;92.96
55538;BME280;41383;51.418;7.286;2023-04-01T04:50:59;97660.16;;;9.53;92.48
55538;BME280;41383;51.418;7.286;2023-04-01T04:53:25;97661.13;;;9.57;92.83
55538;BME280;41383;51.418;7.286;2023-04-01T04:55:51;97669.72;;;9.73;92.32
55538;BME280;41383;51.418;7.286;2023-04-01T04:58:16;97662.47;;;9.68;92.13
55538;BME280;41383;51.418;7.286;2023-04-01T05:00:42;97676.47;;;9.76;91.51
55538;BME280;41383;51.418;7.286;2023-04-01T05:03:09;97675.72;;;9.84;91.64
55538;BME280;41383;51.418;7.286;2023-04-01T05:05:35;97668.66;;;9.83;91.70
55538;BME280;41383;51.418;7.286;2023-04-01T05:08:00;97680.28;;;9.98;91.05
55538;BME280;41383;51.418;7.286;2023-04-01T05:10:26;97674.34;;;9.96;91.21
55538;BME280;41383;51.418;7.286;2023-04-01T05:12:51;97677.63;;;10.15;90.14
55538;BME280;41383;51.418;7.286;2023-04-01T05:15:16;97679.34;;;10.02;90.59
55538;BME280;41383;51.418;7.286;2023-04-01T05:17:42;97672.25;;;9.92;91.34
55538;BME280;41383;51.418;7.286;2023-04-01T05:20:07;97670.09;;;10.12;90.86
55538;BME280;41383;51.418;7.286;2023-04-01T05:22:33;97676.81;;;10.15;90.13
55538;BME280;41383;51.418;7.286;2023-04-01T05:24:58;97677.84;;;10.28;89.93
55538;BME280;41383;51.418;7.286;2023-04-01T05:27:24;97679.16;;;10.39;89.76
55538;BME280;41383;51.418;7.286;2023-04-01T05:29:49;97678.34;;;10.30;89.22
55538;BME280;41383;51.418;7.286;2023-04-01T05:32:14;97681.66;;;10.18;89.30
55538;BME280;41383;51.418;7.286;2023-04-01T05:34:40;97679.28;;;10.25;89.68
55538;BME280;41383;51.418;7.286;2023-04-01T05:37:05;97682.81;;;10.26;89.20
55538;BME280;41383;51.418;7.286;2023-04-01T05:39:36;97686.28;;;10.18;89.87
55538;BME280;41383;51.418;7.286;2023-04-01T05:42:01;97690.59;;;10.10;90.17
55538;BME280;41383;51.418;7.286;2023-04-01T05:44:26;97687.09;;;10.18;89.57
55538;BME280;41383;51.418;7.286;2023-04-01T05:46:51;97694.88;;;10.02;90.65
55538;BME280;41383;51.418;7.286;2023-04-01T05:49:17;97685.47;;;10.08;90.87
55538;BME280;41383;51.418;7.286;2023-04-01T05:51:42;97687.91;;;10.19;90.59
55538;BME280;41383;51.418;7.286;2023-04-01T05:54:08;97699.09;;;10.17;90.15
55538;BME280;41383;51.418;7.286;2023-04-01T05:56:33;97698.59;;;10.15;90.19
55538;BME280;41383;51.418;7.286;2023-04-01T05:58:58;97693.38;;;10.27;90.02
55538;BME280;41383;51.418;7.286;2023-04-01T06:01:23;97693.69;;;10.26;89.65
55538;BME280;41383;51.418;7.286;2023-04-01T06:03:49;97702.31;;;10.19;90.48
55538;BME280;41383;51.418;7.286;2023-04-01T06:06:20;97691.03;;;10.35;90.00
55538;BME280;41383;51.418;7.286;2023-04-01T06:08:48;97706.16;;;10.18;90.02
55538;BME280;41383;51.418;7.286;2023-04-01T06:11:34;97704.53;;;10.17;89.41
55538;BME280;41383;51.418;7.286;2023-04-01T06:14:17;97708.44;;;10.25;90.19
55538;BME280;41383;51.418;7.286;2023-04-01T06:31:16;97707.88;;;10.37;90.02
55538;BME280;41383;51.418;7.286;2023-04-01T06:34:00;97718.03;;;10.22;90.87
55538;BME280;41383;51.418;7.286;2023-04-01T06:39:32;97729.88;;;10.18;90.13
55538;BME280;41383;51.418;7.286;2023-04-01T06:50:32;97728.00;;;10.27;91.04
55538;BME280;41383;51.418;7.286;2023-04-01T06:53:26;97735.19;;;10.23;90.96
55538;BME280;41383;51.418;7.286;2023-04-01T06:55:57;97730.25;;;10.34;90.81
55538;BME280;41383;51.418;7.286;2023-04-01T06:58:29;97733.31;;;10.32;91.54
55538;BME280;41383;51.418;7.286;2023-04-01T07:00:58;97728.50;;;10.29;91.42
55538;BME280;41383;51.418;7.286;2023-04-01T07:03:42;97738.44;;;10.34;90.66
55538;BME280;41383;51.418;7.286;2023-04-01T07:06:16;97740.72;;;10.41;90.38
55538;BME280;41383;51.418;7.286;2023-04-01T07:08:45;97740.22;;;10.61;89.59
55538;BME280;41383;51.418;7.286;2023-04-01T07:11:19;97747.16;;;10.45;90.20
55538;BME280;41383;51.418;7.286;2023-04-01T07:13:51;97746.84;;;10.14;91.39
55538;BME280;41383;51.418;7.286;2023-04-01T07:16:29;97735.13;;;10.46;91.44
55538;BME280;41383;51.418;7.286;2023-04-01T07:21:48;97742.78;;;10.35;90.47
55538;BME280;41383;51.418;7.286;2023-04-01T07:24:29;97746.19;;;10.18;91.45
55538;BME280;41383;51.418;7.286;2023-04-01T07:26:56;97744.38;;;10.36;91.19
55538;BME280;41383;51.418;7.286;2023-04-01T07:29:23;97757.59;;;10.51;90.08
55538;BME280;41383;51.418;7.286;2023-04-01T07:32:09;97761.63;;;10.54;90.05
55538;BME280;41383;51.418;7.286;2023-04-01T07:37:46;97765.22;;;10.64;89.93
55538;BME280;41383;51.418;7.286;2023-04-01T07:43:53;97760.53;;;10.32;91.07
55538;BME280;41383;51.418;7.286;2023-04-01T07:46:40;97763.19;;;10.46;90.58
55538;BME280;41383;51.418;7.286;2023-04-01T07:49:16;97766.34;;;10.39;90.39
55538;BME280;41383;51.418;7.286;2023-04-01T07:52:00;97769.34;;;10.29;91.14
55538;BME280;41383;51.418;7.286;2023-04-01T07:59:58;97774.31;;;10.27;91.12
55538;BME280;41383;51.418;7.286;2023-04-01T08:05:27;97787.56;;;10.51;91.62
55538;BME280;41383;51.418;7.286;2023-04-01T08:08:06;97790.13;;;10.80;90.46
55538;BME280;41383;51.418;7.286;2023-04-01T08:16:35;97794.00;;;10.88;89.85
55538;BME280;41383;51.418;7.286;2023-04-01T08:19:15;97803.28;;;10.78;89.42
55538;BME280;41383;51.418;7.286;2023-04-01T08:21:54;97809.06;;;10.85;90.01
55538;BME280;41383;51.418;7.286;2023-04-01T08:24:44;97803.88;;;10.74;90.01
55538;BME280;41383;51.418;7.286;2023-04-01T08:27:35;97804.38;;;10.77;89.44
55538;BME280;41383;51.418;7.286;2023-04-01T08:30:20;97804.44;;;10.94;89.38
55538;BME280;41383;51.418;7.286;2023-04-01T08:33:04;97798.09;;;11.17;87.96
55538;BME280;41383;51.418;7.286;2023-04-01T08:35:38;97820.13;;;10.80;89.31
55538;BME280;41383;51.418;7.286;2023-04-01T08:38:17;97815.88;;;10.65;90.07
55538;BME280;41383;51.418;7.286;2023-04-01T08:46:44;97826.44;;;10.66;90.32
55538;BME280;41383;51.418;7.286;2023-04-01T08:52:28;97834.91;;;10.33;91.37
55538;BME280;41383;51.418;7.286;2023-04-01T09:00:53;97846.09;;;10.31;91.83
55538;BME280;41383;51.418;7.286;2023-04-01T09:06:46;97852.41;;;10.18;93.45
55538;BME280;41383;51.418;7.286;2023-04-01T09:23:47;97867.50;;;10.47;91.29
55538;BME280;41383;51.418;7.286;2023-04-01T09:26:34;97872.97;;;10.70;90.64
55538;BME280;41383;51.418;7.286;2023-04-01T09:35:06;97877.69;;;10.55;91.29
55538;BME280;41383;51.418;7.286;2023-04-01T09:40:28;97885.09;;;10.41;92.33
55538;BME280;41383;51.418;7.286;2023-04-01T09:54:36;97905.69;;;10.70;90.86
55538;BME280;41383;51.418;7.286;2023-04-01T10:00:39;97907.47;;;10.51;91.93
55538;BME280;41383;51.418;7.286;2023-04-01T10:08:57;97910.63;;;10.68;92.31
55538;BME280;41383;51.418;7.286;2023-04-01T10:11:41;97913.91;;;10.79;90.32
55538;BME280;41383;51.418;7.286;2023-04-01T10:20:53;97925.50;;;10.61;92.67
55538;BME280;41383;51.418;7.286;2023-04-01T10:36:53;97933.47;;;11.13;89.86
55538;BME280;41383;51.418;7.286;2023-04-01T10:39:55;97930.72;;;11.04;90.80
55538;BME280;41383;51.418;7.286;2023-04-01T10:50:54;97937.69;;;11.19;89.82
55538;BME280;41383;51.418;7.286;2023-04-01T10:56:39;97933.75;;;11.02;91.35
55538;BME280;41383;51.418;7.286;2023-04-01T11:07:53;97945.72;;;10.92;92.05
55538;BME280;41383;51.418;7.286;2023-04-01T11:27:21;97964.25;;;11.04;91.24
55538;BME280;41383;51.418;7.286;2023-04-01T11:35:38;97968.16;;;10.89;92.87
55538;BME280;41383;51.418;7.286;2023-04-01T11:41:20;97976.72;;;10.73;93.28
55538;BME280;41383;51.418;7.286;2023-04-01T11:44:15;97985.81;;;10.92;92.57
55538;BME280;41383;51.418;7.286;2023-04-01T11:58:19;98001.06;;;10.93;94.17
55538;BME280;41383;51.418;7.286;2023-04-01T12:01:14;98014.69;;;10.93;93.84
55538;BME280;41383;51.418;7.286;2023-04-01T12:03:51;98011.03;;;10.97;92.70
55538;BME280;41383;51.418;7.286;2023-04-01T12:22:44;98027.31;;;11.35;91.98
55538;BME280;41383;51.418;7.286;2023-04-01T12:25:24;98026.94;;;11.27;91.50
55538;BME280;41383;51.418;7.286;2023-04-01T12:27:53;98039.22;;;11.39;90.83
55538;BME280;41383;51.418;7.286;2023-04-01T12:30:51;98036.84;;;11.23;91.26
55538;BME280;41383;51.418;7.286;2023-04-01T12:49:48;98063.38;;;11.31;91.58
55538;BME280;41383;51.418;7.286;2023-04-01T12:52:27;98059.59;;;11.41;91.32
55538;BME280;41383;51.418;7.286;2023-04-01T13:09:21;98089.19;;;11.48;91.37
55538;BME280;41383;51.418;7.286;2023-04-01T13:14:50;98089.84;;;11.54;91.02
55538;BME280;41383;51.418;7.286;2023-04-01T13:31:25;98106.53;;;11.29;91.77
55538;BME280;41383;51.418;7.286;2023-04-01T13:34:09;98105.69;;;11.20;93.08
55538;BME280;41383;51.418;7.286;2023-04-01T13:39:44;98112.06;;;11.15;93.08
55538;BME280;41383;51.418;7.286;2023-04-01T13:42:26;98114.38;;;11.22;92.74
55538;BME280;41383;51.418;7.286;2023-04-01T13:45:01;98116.59;;;11.20;92.20
55538;BME280;41383;51.418;7.286;2023-04-01T13:47:44;98116.34;;;11.07;92.85
55538;BME280;41383;51.418;7.286;2023-04-01T13:50:46;98115.84;;;11.28;92.53
55538;BME280;41383;51.418;7.286;2023-04-01T13:53:35;98120.63;;;11.23;92.39
55538;BME280;41383;51.418;7.286;2023-04-01T13:56:14;98126.50;;;11.16;92.25
55538;BME280;41383;51.418;7.286;2023-04-01T13:59:16;98125.50;;;11.12;92.33
55538;BME280;41383;51.418;7.286;2023-04-01T14:08:05;98133.97;;;10.87;93.32
55538;BME280;41383;51.418;7.286;2023-04-01T14:14:01;98139.16;;;11.12;92.61
55538;BME280;41383;51.418;7.286;2023-04-01T14:22:18;98147.16;;;11.08;92.36
55538;BME280;41383;51.418;7.286;2023-04-01T14:24:57;98159.31;;;11.25;92.39
55538;BME280;41383;51.418;7.286;2023-04-01T14:30:05;98161.19;;;11.01;92.39
55538;BME280;41383;51.418;7.286;2023-04-01T14:35:26;98169.38;;;11.01;92.47
55538;BME280;41383;51.418;7.286;2023-04-01T14:43:42;98168.97;;;11.31;91.73
55538;BME280;41383;51.418;7.286;2023-04-01T14:49:28;98179.94;;;11.17;91.84
55538;BME280;41383;51.418;7.286;2023-04-01T14:51:55;98180.66;;;11.23;91.62
55538;BME280;41383;51.418;7.286;2023-04-01T14:54:34;98185.94;;;11.42;90.55
55538;BME280;41383;51.418;7.286;2023-04-01T14:57:10;98183.75;;;11.30;91.12
55538;BME280;41383;51.418;7.286;2023-04-01T14:59:40;98177.47;;;11.29;91.47
55538;BME280;41383;51.418;7.286;2023-04-01T15:04:50;98184.56;;;11.30;91.25
55538;BME280;41383;51.418;7.286;2023-04-01T15:13:07;98202.41;;;11.00;92.02
55538;BME280;41383;51.418;7.286;2023-04-01T15:16:07;98209.56;;;11.09;91.96
55538;BME280;41383;51.418;7.286;2023-04-01T15:18:45;98212.31;;;10.95;92.82
55538;BME280;41383;51.418;7.286;2023-04-01T15:21:53;98215.34;;;11.08;92.57
55538;BME280;41383;51.418;7.286;2023-04-01T15:24:48;98215.34;;;11.08;91.93
55538;BME280;41383;51.418;7.286;2023-04-01T15:27:46;98217.03;;;11.18;91.55
55538;BME280;41383;51.418;7.286;2023-04-01T15:30:30;98224.97;;;11.28;91.78
55538;BME280;41383;51.418;7.286;2023-04-01T15:35:37;98228.34;;;11.11;91.90
55538;BME280;41383;51.418;7.286;2023-04-01T15:38:06;98222.38;;;11.09;92.18
55538;BME280;41383;51.418;7.286;2023-04-01T15:40:49;98225.91;;;11.24;92.34
55538;BME280;41383;51.418;7.286;2023-04-01T15:43:42;98241.22;;;11.33;90.79
55538;BME280;41383;51.418;7.286;2023-04-01T15:46:21;98244.09;;;11.14;92.04
55538;BME280;41383;51.418;7.286;2023-04-01T15:52:06;98245.84;;;10.96;92.94
55538;BME280;41383;51.418;7.286;2023-04-01T15:57:48;98253.31;;;11.04;93.14
55538;BME280;41383;51.418;7.286;2023-04-01T16:00:53;98254.53;;;11.12;92.62
55538;BME280;41383;51.418;7.286;2023-04-01T16:03:36;98253.19;;;11.09;92.60
55538;BME280;41383;51.418;7.286;2023-04-01T16:11:21;98270.28;;;11.01;93.43
55538;BME280;41383;51.418;7.286;2023-04-01T16:13:57;98262.97;;;11.11;93.15
55538;BME280;41383;51.418;7.286;2023-04-01T16:16:59;98273.28;;;11.14;92.20
55538;BME280;41383;51.418;7.286;2023-04-01T16:19:51;98268.69;;;11.00;92.91
55538;BME280;41383;51.418;7.286;2023-04-01T16:22:28;98274.53;;;10.79;94.09
55538;BME280;41383;51.418;7.286;2023-04-01T16:27:42;98280.19;;;10.97;93.38
55538;BME280;41383;51.418;7.286;2023-04-01T16:33:57;98282.41;;;10.95;93.37
55538;BME280;41383;51.418;7.286;2023-04-01T16:36:43;98287.97;;;10.90;93.14
55538;BME280;41383;51.418;7.286;2023-04-01T16:39:22;98298.75;;;11.09;92.79
55538;BME280;41383;51.418;7.286;2023-04-01T16:44:46;98301.41;;;11.00;93.34
55538;BME280;41383;51.418;7.286;2023-04-01T16:47:17;98301.59;;;10.90;94.00
55538;BME280;41383;51.418;7.286;2023-04-01T16:49:51;98310.97;;;10.97;93.72
55538;BME280;41383;51.418;7.286;2023-04-01T16:52:43;98311.69;;;11.03;92.99
55538;BME280;41383;51.418;7.286;2023-04-01T16:55:18;98318.97;;;11.08;93.22
55538;BME280;41383;51.418;7.286;2023-04-01T16:57:52;98328.06;;;11.03;93.13
55538;BME280;41383;51.418;7.286;2023-04-01T17:00:28;98327.34;;;10.83;93.79
55538;BME280;41383;51.418;7.286;2023-04-01T17:03:25;98325.31;;;10.75;94.48
55538;BME280;41383;51.418;7.286;2023-04-01T17:06:17;98324.09;;;10.81;94.66
55538;BME280;41383;51.418;7.286;2023-04-01T17:11:52;98331.28;;;10.91;93.38
55538;BME280;41383;51.418;7.286;2023-04-01T17:20:05;98347.25;;;10.98;93.06
55538;BME280;41383;51.418;7.286;2023-04-01T17:31:20;98357.41;;;10.92;93.31
55538;BME280;41383;51.418;7.286;2023-04-01T17:39:35;98370.78;;;10.94;93.30
55538;BME280;41383;51.418;7.286;2023-04-01T17:44:39;98383.91;;;10.92;93.04
55538;BME280;41383;51.418;7.286;2023-04-01T17:47:23;98383.38;;;10.76;93.15
55538;BME280;41383;51.418;7.286;2023-04-01T17:50:20;98387.31;;;10.83;94.11
55538;BME280;41383;51.418;7.286;2023-04-01T17:53:02;98395.59;;;10.92;93.46
55538;BME280;41383;51.418;7.286;2023-04-01T17:56:02;98400.84;;;10.89;93.33
55538;BME280;41383;51.418;7.286;2023-04-01T18:01:30;98404.38;;;10.75;93.68
55538;BME280;41383;51.418;7.286;2023-04-01T18:04:10;98411.00;;;10.69;94.67
55538;BME280;41383;51.418;7.286;2023-04-01T18:07:04;98421.13;;;10.82;94.29
55538;BME280;41383;51.418;7.286;2023-04-01T18:12:45;98423.69;;;10.93;92.84
55538;BME280;41383;51.418;7.286;2023-04-01T18:15:41;98432.38;;;10.95;92.96
55538;BME280;41383;51.418;7.286;2023-04-01T18:18:23;98436.28;;;10.89;93.29
55538;BME280;41383;51.418;7.286;2023-04-01T18:21:05;98438.84;;;10.99;93.10
55538;BME280;41383;51.418;7.286;2023-04-01T18:23:39;98442.00;;;11.06;92.56
55538;BME280;41383;51.418;7.286;2023-04-01T18:26:11;98443.28;;;10.95;92.49
55538;BME280;41383;51.418;7.286;2023-04-01T18:31:45;98452.97;;;10.87;93.13
55538;BME280;41383;51.418;7.286;2023-04-01T18:39:42;98469.88;;;11.03;92.76
55538;BME280;41383;51.418;7.286;2023-04-01T18:42:16;98473.31;;;11.09;92.64
55538;BME280;41383;51.418;7.286;2023-04-01T18:44:49;98465.53;;;11.02;91.66
55538;BME280;41383;51.418;7.286;2023-04-01T18:47:25;98476.72;;;11.01;92.79
55538;BME280;41383;51.418;7.286;2023-04-01T18:52:43;98474.72;;;11.06;92.62
55538;BME280;41383;51.418;7.286;2023-04-01T18:55:28;98489.66;;;11.09;92.28
55538;BME280;41383;51.418;7.286;2023-04-01T18:58:06;98491.50;;;11.14;92.06
55538;BME280;41383;51.418;7.286;2023-04-01T19:00:39;98491.31;;;11.10;92.02
55538;BME280;41383;51.418;7.286;2023-04-01T19:03:12;98495.34;;;11.13;92.03
55538;BME280;41383;51.418;7.286;2023-04-01T19:05:44;98499.06;;;11.17;91.52
55538;BME280;41383;51.418;7.286;2023-04-01T19:08:30;98506.06;;;11.23;91.85
55538;BME280;41383;51.418;7.286;2023-04-01T19:11:33;98509.28;;;11.11;91.90
55538;BME280;41383;51.418;7.286;2023-04-01T19:19:50;98525.34;;;11.13;91.73
55538;BME280;41383;51.418;7.286;2023-04-01T19:27:48;98532.84;;;10.88;93.84
55538;BME280;41383;51.418;7.286;2023-04-01T19:30:42;98538.66;;;11.00;93.03
55538;BME280;41383;51.418;7.286;2023-04-01T19:36:21;98541.78;;;11.07;91.85
55538;BME280;41383;51.418;7.286;2023-04-01T19:41:41;98538.56;;;11.05;91.38
55538;BME280;41383;51.418;7.286;2023-04-01T19:44:19;98538.75;;;11.09;91.74
55538;BME280;41383;51.418;7.286;2023-04-01T19:47:16;98539.22;;;10.97;91.75
55538;BME280;41383;51.418;7.286;2023-04-01T19:50:39;98540.44;;;10.71;92.23
55538;BME280;41383;51.418;7.286;2023-04-01T19:52:39;98550.75;;;10.74;92.81
55538;BME280;41383;51.418;7.286;2023-04-01T19:55:24;98542.50;;;10.80;92.81
55538;BME280;41383;51.418;7.286;2023-04-01T19:58:18;98557.44;;;10.82;92.70
55538;BME280;41383;51.418;7.286;2023-04-01T20:00:52;98572.25;;;10.95;92.12
55538;BME280;41383;51.418;7.286;2023-04-01T20:06:18;98588.09;;;10.93;91.74
55538;BME280;41383;51.418;7.286;2023-04-01T20:09:05;98598.78;;;11.09;91.28
55538;BME280;41383;51.418;7.286;2023-04-01T20:14:40;98612.03;;;11.16;90.28
55538;BME280;41383;51.418;7.286;2023-04-01T20:17:18;98620.22;;;11.16;90.90